createdAt,value
2023-01-27T00:00:24.549Z,16.37
2023-01-27T00:02:54.622Z,16.10
2023-01-27T00:05:24.986Z,15.17
2023-01-27T00:07:53.621Z,16.23
2023-01-27T00:10:22.738Z,16.17
2023-01-27T00:13:23.558Z,15.70
2023-01-27T00:15:54.787Z,15.50
2023-01-27T00:18:25.769Z,15.70
2023-01-27T00:21:15.329Z,16.10
2023-01-27T00:24:02.314Z,16.27
2023-01-27T00:26:30.506Z,17.27
2023-01-27T00:29:00.627Z,18.20
2023-01-27T00:31:47.216Z,16.80
2023-01-27T00:34:17.711Z,17.70
2023-01-27T00:36:46.388Z,18.63
2023-01-27T00:39:16.662Z,19.67
2023-01-27T00:41:45.127Z,18.43
2023-01-27T00:44:16.557Z,19.20
2023-01-27T00:46:44.815Z,20.40
2023-01-27T00:49:13.550Z,19.93
2023-01-27T00:51:44.370Z,18.80
2023-01-27T00:54:12.628Z,19.37
2023-01-27T00:56:45.071Z,19.53
2023-01-27T00:59:14.787Z,19.20
2023-01-27T01:01:42.979Z,19.10
2023-01-27T01:04:12.721Z,18.17
2023-01-27T01:06:42.593Z,19.47
2023-01-27T01:09:13.283Z,18.93
2023-01-27T01:11:41.556Z,18.77
2023-01-27T01:14:10.373Z,20.30
2023-01-27T01:16:40.729Z,20.10
2023-01-27T01:19:08.871Z,19.37
2023-01-27T01:21:41.069Z,20.23
2023-01-27T01:24:11.768Z,19.90
2023-01-27T01:26:40.760Z,19.63
2023-01-27T01:29:09.733Z,20.07
2023-01-27T01:31:37.939Z,20.70
2023-01-27T01:34:08.706Z,19.97
2023-01-27T01:36:37.007Z,19.60
2023-01-27T01:39:06.750Z,19.90
2023-01-27T01:41:36.374Z,20.20
2023-01-27T01:44:20.236Z,19.57
2023-01-27T01:46:50.619Z,20.33
2023-01-27T01:49:22.737Z,20.93
2023-01-27T01:51:54.572Z,19.63
2023-01-27T01:54:26.601Z,19.70
2023-01-27T01:57:01.834Z,19.37
2023-01-27T01:59:35.761Z,20.63
2023-01-27T02:02:07.057Z,20.33
2023-01-27T02:04:42.677Z,20.17
2023-01-27T02:07:14.569Z,20.40
2023-01-27T02:09:43.743Z,19.50
2023-01-27T02:12:13.275Z,20.10
2023-01-27T02:14:43.225Z,20.03
2023-01-27T02:17:15.144Z,20.00
2023-01-27T02:19:52.599Z,21.10
2023-01-27T02:22:28.745Z,20.23
2023-01-27T02:25:05.323Z,19.90
2023-01-27T02:27:35.717Z,19.23
2023-01-27T02:30:07.590Z,19.60
2023-01-27T02:32:37.628Z,20.17
2023-01-27T02:35:13.974Z,20.30
2023-01-27T02:37:43.745Z,18.43
2023-01-27T02:40:13.732Z,19.63
2023-01-27T02:42:43.736Z,19.07
2023-01-27T02:45:13.185Z,19.23
2023-01-27T02:47:42.301Z,18.40
2023-01-27T02:50:12.754Z,17.87
2023-01-27T02:52:41.864Z,18.30
2023-01-27T02:55:11.968Z,17.77
2023-01-27T02:57:42.367Z,17.43
2023-01-27T03:00:40.518Z,17.40
2023-01-27T03:03:08.698Z,18.00
2023-01-27T03:05:37.740Z,18.63
2023-01-27T03:08:07.838Z,18.77
2023-01-27T03:10:36.867Z,18.03
2023-01-27T03:13:09.778Z,18.23
2023-01-27T03:15:58.564Z,18.07
2023-01-27T03:18:30.945Z,18.97
2023-01-27T03:21:03.516Z,17.67
2023-01-27T03:23:34.722Z,18.63
2023-01-27T03:26:06.996Z,18.93
2023-01-27T03:28:38.772Z,18.23
2023-01-27T03:31:19.656Z,19.13
2023-01-27T03:33:54.315Z,19.00
2023-01-27T03:36:49.797Z,18.70
2023-01-27T03:39:35.618Z,19.13
2023-01-27T03:42:22.285Z,18.50
2023-01-27T03:45:11.456Z,18.53
2023-01-27T03:47:39.751Z,18.67
2023-01-27T03:50:13.904Z,18.87
2023-01-27T03:53:02.969Z,18.70
2023-01-27T03:55:32.799Z,17.83
2023-01-27T03:58:21.686Z,18.30
2023-01-27T04:00:54.840Z,18.07
2023-01-27T04:03:43.354Z,19.60
2023-01-27T04:06:31.420Z,19.10
2023-01-27T04:09:00.813Z,18.23
2023-01-27T04:11:46.105Z,19.27
2023-01-27T04:14:14.770Z,20.10
2023-01-27T04:16:44.939Z,19.53
2023-01-27T04:19:14.624Z,21.10
2023-01-27T04:21:43.790Z,20.03
2023-01-27T04:24:22.567Z,20.13
2023-01-27T04:26:53.664Z,19.77
2023-01-27T04:29:25.779Z,19.07
2023-01-27T04:31:56.661Z,19.20
2023-01-27T04:34:25.648Z,20.30
2023-01-27T04:36:54.199Z,20.33
2023-01-27T04:39:26.567Z,20.13
2023-01-27T04:41:55.650Z,20.27
2023-01-27T04:44:24.277Z,20.93
2023-01-27T04:46:54.104Z,20.67
2023-01-27T04:49:26.771Z,21.93
2023-01-27T04:51:55.512Z,21.87
2023-01-27T04:54:24.864Z,21.77
2023-01-27T04:57:01.392Z,21.83
2023-01-27T04:59:29.844Z,23.70
2023-01-27T05:01:59.298Z,23.17
2023-01-27T05:04:28.941Z,27.80
2023-01-27T05:06:57.565Z,26.43
2023-01-27T05:09:26.785Z,26.67
2023-01-27T05:11:55.417Z,24.07
2023-01-27T05:14:25.701Z,27.00
2023-01-27T05:16:54.850Z,28.97
2023-01-27T05:19:23.121Z,28.07
2023-01-27T05:21:52.610Z,29.20
2023-01-27T05:24:25.357Z,30.23
2023-01-27T05:26:54.455Z,29.37
2023-01-27T05:29:22.681Z,28.40
2023-01-27T05:31:50.932Z,29.33
2023-01-27T05:34:19.398Z,27.93
2023-01-27T05:36:47.776Z,28.77
2023-01-27T05:39:17.664Z,29.27
2023-01-27T05:41:46.561Z,28.97
2023-01-27T05:44:15.583Z,28.60
2023-01-27T05:46:43.931Z,28.40
2023-01-27T05:49:12.453Z,28.87
2023-01-27T05:51:41.317Z,29.00
2023-01-27T05:54:13.265Z,29.40
2023-01-27T05:56:42.962Z,29.77
2023-01-27T05:59:12.338Z,28.77
2023-01-27T06:01:41.037Z,29.37
2023-01-27T06:04:10.824Z,30.47
2023-01-27T06:06:41.413Z,29.33
2023-01-27T06:09:11.508Z,30.93
2023-01-27T06:11:40.653Z,31.73
2023-01-27T06:14:10.847Z,31.33
2023-01-27T06:16:43.616Z,40.60
2023-01-27T06:19:12.822Z,35.00
2023-01-27T06:21:41.810Z,34.33
2023-01-27T06:24:12.636Z,33.97
2023-01-27T06:26:44.645Z,50.53
2023-01-27T06:29:14.675Z,60.30
2023-01-27T06:31:42.886Z,36.70
2023-01-27T06:34:11.215Z,34.97
2023-01-27T06:36:39.417Z,37.47
2023-01-27T06:39:09.778Z,36.50
2023-01-27T06:41:39.685Z,35.20
2023-01-27T06:44:07.839Z,36.63
2023-01-27T06:46:37.512Z,36.67
2023-01-27T06:49:05.853Z,37.90
2023-01-27T06:51:34.157Z,36.20
2023-01-27T06:54:02.826Z,57.23
2023-01-27T06:56:33.469Z,37.93
2023-01-27T06:59:01.861Z,35.63
2023-01-27T07:01:30.111Z,36.50
2023-01-27T07:04:00.845Z,37.50
2023-01-27T07:06:29.653Z,36.20
2023-01-27T07:08:58.838Z,36.47
2023-01-27T07:11:29.352Z,36.30
2023-01-27T07:13:57.861Z,36.93
2023-01-27T07:16:26.736Z,36.90
2023-01-27T07:18:55.030Z,39.03
2023-01-27T07:21:29.490Z,37.90
2023-01-27T07:23:57.897Z,35.33
2023-01-27T07:26:26.839Z,37.10
2023-01-27T07:28:56.309Z,36.70
2023-01-27T07:31:25.788Z,51.60
2023-01-27T07:33:54.720Z,38.93
2023-01-27T07:36:24.634Z,38.40
2023-01-27T07:38:52.961Z,37.20
2023-01-27T07:41:23.034Z,35.93
2023-01-27T07:43:52.605Z,38.23
2023-01-27T07:46:21.007Z,37.13
2023-01-27T07:48:52.732Z,36.67
2023-01-27T07:51:20.982Z,36.30
2023-01-27T07:53:51.979Z,38.30
2023-01-27T07:56:20.177Z,37.37
2023-01-27T07:58:48.970Z,36.40
2023-01-27T08:01:20.793Z,36.60
2023-01-27T08:03:49.177Z,35.43
2023-01-27T08:06:17.713Z,36.17
2023-01-27T08:08:45.896Z,34.67
2023-01-27T08:11:17.890Z,35.73
2023-01-27T08:13:48.774Z,32.83
2023-01-27T08:16:17.723Z,34.60
2023-01-27T08:18:46.851Z,32.23
2023-01-27T08:21:15.911Z,33.03
2023-01-27T08:23:44.038Z,33.17
2023-01-27T08:26:12.884Z,34.40
2023-01-27T08:28:42.705Z,33.03
2023-01-27T08:31:13.446Z,31.97
2023-01-27T08:33:43.004Z,31.53
2023-01-27T08:36:13.817Z,31.97
2023-01-27T08:38:49.316Z,32.67
2023-01-27T08:41:20.513Z,33.13
2023-01-27T08:43:51.501Z,33.40
2023-01-27T08:46:19.865Z,31.20
2023-01-27T08:48:50.299Z,30.87
2023-01-27T08:51:18.744Z,32.90
2023-01-27T08:53:47.905Z,31.63
2023-01-27T08:56:16.614Z,28.33
2023-01-27T08:58:52.280Z,27.67
2023-01-27T09:01:21.608Z,27.80
2023-01-27T09:03:50.413Z,29.07
2023-01-27T09:06:18.847Z,28.40
2023-01-27T09:09:11.132Z,26.27
2023-01-27T09:11:47.381Z,24.33
2023-01-27T09:14:17.714Z,23.57
2023-01-27T09:16:46.851Z,25.37
2023-01-27T09:19:15.707Z,25.70
2023-01-27T09:21:47.960Z,26.10
2023-01-27T09:24:18.068Z,22.87
2023-01-27T09:26:46.452Z,24.03
2023-01-27T09:29:15.959Z,22.53
2023-01-27T09:31:47.967Z,22.63
2023-01-27T09:34:17.838Z,19.80
2023-01-27T09:36:54.835Z,20.53
2023-01-27T09:39:23.387Z,19.20
2023-01-27T09:42:08.989Z,21.97
2023-01-27T09:45:21.018Z,22.90
2023-01-27T09:48:18.086Z,21.90
2023-01-27T09:50:51.943Z,22.20
2023-01-27T09:53:50.254Z,20.57
2023-01-27T09:56:28.911Z,19.70
2023-01-27T09:59:10.979Z,19.33
2023-01-27T10:01:57.417Z,19.97
2023-01-27T10:05:03.689Z,22.00
2023-01-27T10:07:55.880Z,23.73
2023-01-27T10:10:37.915Z,23.03
2023-01-27T10:13:21.238Z,22.43
2023-01-27T10:16:04.374Z,23.43
2023-01-27T10:18:58.709Z,24.03
2023-01-27T10:21:36.910Z,22.47
2023-01-27T10:24:16.087Z,21.43
2023-01-27T10:26:52.942Z,17.17
2023-01-27T10:29:29.578Z,17.40
2023-01-27T10:32:02.900Z,18.73
2023-01-27T10:34:37.898Z,21.80
2023-01-27T10:37:19.723Z,20.70
2023-01-27T10:39:58.149Z,22.77
2023-01-27T10:42:34.999Z,21.90
2023-01-27T10:45:24.174Z,22.97
2023-01-27T10:48:05.746Z,22.00
2023-01-27T10:50:44.121Z,21.83
2023-01-27T10:53:17.935Z,24.07
2023-01-27T10:55:53.971Z,25.93
2023-01-27T10:58:32.683Z,26.63
2023-01-27T11:01:20.525Z,28.77
2023-01-27T11:03:55.701Z,27.70
2023-01-27T11:06:29.762Z,27.80
2023-01-27T11:09:17.763Z,26.13
2023-01-27T11:11:49.263Z,24.57
2023-01-27T11:14:26.942Z,27.60
2023-01-27T11:17:03.886Z,26.70
2023-01-27T11:19:44.948Z,26.70
2023-01-27T11:22:23.731Z,28.83
2023-01-27T11:25:02.560Z,29.37
2023-01-27T11:27:49.535Z,28.93
2023-01-27T11:30:25.274Z,29.60
2023-01-27T11:33:06.213Z,30.17
2023-01-27T11:35:34.987Z,30.63
2023-01-27T11:38:15.126Z,29.87
2023-01-27T11:40:46.964Z,29.17
2023-01-27T11:43:21.378Z,30.43
2023-01-27T11:45:51.512Z,28.93
2023-01-27T11:48:23.465Z,29.07
2023-01-27T11:50:55.944Z,26.10
2023-01-27T11:53:32.232Z,26.23
2023-01-27T11:56:08.938Z,24.13
2023-01-27T11:58:45.302Z,24.87
2023-01-27T12:01:18.952Z,25.53
2023-01-27T12:03:55.515Z,25.83
2023-01-27T12:06:40.762Z,26.80
2023-01-27T12:09:36.039Z,26.43
2023-01-27T12:12:23.823Z,28.00
2023-01-27T12:14:54.960Z,27.40
2023-01-27T12:17:31.825Z,26.73
2023-01-27T12:20:04.268Z,27.00
2023-01-27T12:22:35.657Z,27.93
2023-01-27T12:25:10.258Z,26.53
2023-01-27T12:27:42.953Z,28.37
2023-01-27T12:30:22.418Z,28.23
2023-01-27T12:32:51.786Z,27.93
2023-01-27T12:35:26.181Z,29.27
2023-01-27T12:37:59.269Z,30.00
2023-01-27T12:40:34.583Z,29.87
2023-01-27T12:43:12.547Z,30.93
2023-01-27T12:45:43.795Z,30.60
2023-01-27T12:48:23.081Z,30.90
2023-01-27T12:51:06.072Z,32.47
2023-01-27T12:53:34.964Z,30.83
2023-01-27T12:56:13.046Z,33.30
2023-01-27T12:58:42.954Z,33.40
2023-01-27T13:01:26.127Z,34.60
2023-01-27T13:03:57.713Z,33.80
2023-01-27T13:06:42.012Z,33.60
2023-01-27T13:09:26.521Z,33.67
2023-01-27T13:11:58.789Z,33.03
2023-01-27T13:14:30.464Z,33.50
2023-01-27T13:16:59.716Z,33.50
2023-01-27T13:19:37.637Z,33.97
2023-01-27T13:22:07.376Z,34.40
2023-01-27T13:24:42.274Z,34.43
2023-01-27T13:27:16.873Z,33.13
2023-01-27T13:29:53.979Z,34.30
2023-01-27T13:32:27.299Z,34.20
2023-01-27T13:35:05.452Z,33.37
2023-01-27T13:37:36.793Z,33.50
2023-01-27T13:40:12.261Z,35.47
2023-01-27T13:42:47.993Z,32.97
2023-01-27T13:45:19.855Z,33.50
2023-01-27T13:47:53.483Z,35.60
2023-01-27T13:50:29.998Z,35.03
2023-01-27T13:53:00.988Z,34.60
2023-01-27T13:55:47.486Z,36.07
2023-01-27T13:58:26.565Z,35.03
2023-01-27T14:01:03.554Z,36.30
2023-01-27T14:03:50.096Z,36.77
2023-01-27T14:06:32.087Z,37.33
2023-01-27T14:09:11.283Z,35.03
2023-01-27T14:11:49.055Z,35.53
2023-01-27T14:14:57.366Z,34.50
2023-01-27T14:17:37.029Z,32.93
2023-01-27T14:20:29.424Z,32.10
2023-01-27T14:23:24.336Z,33.87
2023-01-27T14:26:04.045Z,33.50
2023-01-27T14:28:39.993Z,35.83
2023-01-27T14:31:18.207Z,34.90
2023-01-27T14:33:58.999Z,35.10
2023-01-27T14:36:31.927Z,33.23
2023-01-27T14:39:15.379Z,34.13
2023-01-27T14:41:50.925Z,34.73
2023-01-27T14:44:33.884Z,37.63
2023-01-27T14:47:20.829Z,40.43
2023-01-27T14:50:08.391Z,35.27
2023-01-27T14:52:44.355Z,34.43
2023-01-27T14:55:33.102Z,35.13
2023-01-27T14:58:13.209Z,39.03
2023-01-27T15:00:50.335Z,35.93
2023-01-27T15:03:46.357Z,37.70
2023-01-27T15:06:23.028Z,38.10
2023-01-27T15:08:58.824Z,36.40
2023-01-27T15:12:04.556Z,37.03
2023-01-27T15:15:03.116Z,38.90
2023-01-27T15:17:48.758Z,67.60
2023-01-27T15:20:48.571Z,53.07
2023-01-27T15:23:40.140Z,38.73
2023-01-27T15:26:10.997Z,38.60
2023-01-27T15:28:42.989Z,40.70
2023-01-27T15:31:25.932Z,38.07
2023-01-27T15:33:57.983Z,37.47
2023-01-27T15:36:40.363Z,38.30
2023-01-27T15:39:23.717Z,38.00
2023-01-27T15:42:14.002Z,37.50
2023-01-27T15:44:59.851Z,37.77
2023-01-27T15:47:33.893Z,37.90
2023-01-27T15:50:15.454Z,37.73
2023-01-27T15:52:48.045Z,37.73
2023-01-27T15:55:28.534Z,36.60
2023-01-27T15:58:06.240Z,38.07
2023-01-27T16:00:37.972Z,36.30
2023-01-27T16:03:21.097Z,37.93
2023-01-27T16:05:56.571Z,37.30
2023-01-27T16:08:31.349Z,38.47
2023-01-27T16:11:24.237Z,37.40
2023-01-27T16:13:52.750Z,37.87
2023-01-27T16:16:32.063Z,37.40
2023-01-27T16:19:08.603Z,38.87
2023-01-27T16:21:47.621Z,39.93
2023-01-27T16:24:26.294Z,38.50
2023-01-27T16:26:59.277Z,39.40
2023-01-27T16:29:37.941Z,38.80
2023-01-27T16:32:08.297Z,39.77
2023-01-27T16:34:41.065Z,41.83
2023-01-27T16:37:27.357Z,42.60
2023-01-27T16:40:05.744Z,42.17
2023-01-27T16:42:37.104Z,36.83
2023-01-27T16:45:17.433Z,39.40
2023-01-27T16:47:54.260Z,39.57
2023-01-27T16:50:48.965Z,38.40
2023-01-27T16:53:20.255Z,37.67
2023-01-27T16:56:01.901Z,38.67
2023-01-27T16:58:44.596Z,38.03
2023-01-27T17:01:22.499Z,38.07
2023-01-27T17:03:55.053Z,38.00
2023-01-27T17:06:24.154Z,37.30
2023-01-27T17:08:52.369Z,36.43
2023-01-27T17:11:25.934Z,35.73
2023-01-27T17:14:00.168Z,36.80
2023-01-27T17:16:32.868Z,36.50
2023-01-27T17:19:09.724Z,36.47
2023-01-27T17:21:45.178Z,34.93
2023-01-27T17:24:23.749Z,36.63
2023-01-27T17:27:01.695Z,34.97
2023-01-27T17:29:36.171Z,35.77
2023-01-27T17:32:20.454Z,35.43
2023-01-27T17:34:50.260Z,35.27
2023-01-27T17:37:19.898Z,36.23
2023-01-27T17:39:56.710Z,34.10
2023-01-27T17:42:30.743Z,31.40
2023-01-27T17:45:23.487Z,32.83
2023-01-27T17:47:52.470Z,32.87
2023-01-27T17:50:24.484Z,33.67
2023-01-27T17:52:58.089Z,34.67
2023-01-27T17:55:27.902Z,33.00
2023-01-27T17:58:07.480Z,32.70
2023-01-27T18:00:40.082Z,31.50
2023-01-27T18:03:15.298Z,31.23
2023-01-27T18:05:46.114Z,29.60
2023-01-27T18:08:14.215Z,29.90
2023-01-27T18:10:45.214Z,27.77
2023-01-27T18:13:36.284Z,27.87
2023-01-27T18:16:15.921Z,28.00
2023-01-27T18:18:48.119Z,27.70
2023-01-27T18:21:19.407Z,25.67
2023-01-27T18:23:51.288Z,27.07
2023-01-27T18:26:23.131Z,27.90
2023-01-27T18:28:57.463Z,28.13
2023-01-27T18:31:29.815Z,28.13
2023-01-27T18:34:01.637Z,26.67
2023-01-27T18:36:34.605Z,26.03
2023-01-27T18:39:03.557Z,25.50
2023-01-27T18:41:37.640Z,24.60
2023-01-27T18:44:08.465Z,25.23
2023-01-27T18:46:40.224Z,24.80
2023-01-27T18:49:11.652Z,24.30
2023-01-27T18:51:50.452Z,25.93
2023-01-27T18:54:18.603Z,24.17
2023-01-27T18:56:47.733Z,24.67
2023-01-27T18:59:17.246Z,24.23
2023-01-27T19:01:45.568Z,24.33
2023-01-27T19:04:16.411Z,23.90
2023-01-27T19:06:44.825Z,23.93
2023-01-27T19:09:13.036Z,23.97
2023-01-27T19:11:42.308Z,24.47
2023-01-27T19:14:10.988Z,24.00
2023-01-27T19:16:55.132Z,23.63
2023-01-27T19:19:31.045Z,24.93
2023-01-27T19:21:59.525Z,23.57
2023-01-27T19:24:30.000Z,24.93
2023-01-27T19:27:03.990Z,23.67
2023-01-27T19:29:32.682Z,24.23
2023-01-27T19:32:02.336Z,22.63
2023-01-27T19:34:30.454Z,30.20
2023-01-27T19:36:59.624Z,24.63
2023-01-27T19:39:28.817Z,23.47
2023-01-27T19:41:57.030Z,23.27
2023-01-27T19:44:27.526Z,23.43
2023-01-27T19:46:57.155Z,22.10
2023-01-27T19:49:27.029Z,23.73
2023-01-27T19:51:58.940Z,23.83
2023-01-27T19:54:27.574Z,24.13
2023-01-27T19:56:55.886Z,24.53
2023-01-27T19:59:25.732Z,24.87
2023-01-27T20:01:54.931Z,24.80
2023-01-27T20:04:26.702Z,24.63
2023-01-27T20:06:57.598Z,24.93
2023-01-27T20:09:26.251Z,24.50
2023-01-27T20:11:54.918Z,22.60
2023-01-27T20:14:26.101Z,23.47
2023-01-27T20:16:58.618Z,23.30
2023-01-27T20:19:27.483Z,24.27
2023-01-27T20:21:58.923Z,43.13
2023-01-27T20:24:29.737Z,26.87
2023-01-27T20:26:59.625Z,25.57
2023-01-27T20:29:27.958Z,24.80
2023-01-27T20:31:58.352Z,24.80
2023-01-27T20:34:29.400Z,23.43
2023-01-27T20:36:58.973Z,24.83
2023-01-27T20:39:27.787Z,25.17
2023-01-27T20:41:56.018Z,25.53
2023-01-27T20:44:24.346Z,29.87
2023-01-27T20:46:56.290Z,34.13
2023-01-27T20:49:24.599Z,32.83
2023-01-27T20:51:55.459Z,29.03
2023-01-27T20:54:25.192Z,26.53
2023-01-27T20:56:53.669Z,25.27
2023-01-27T20:59:25.455Z,25.77
2023-01-27T21:01:53.798Z,25.53
2023-01-27T21:04:22.011Z,25.23
2023-01-27T21:06:50.552Z,26.03
2023-01-27T21:09:18.710Z,24.60
2023-01-27T21:11:49.259Z,25.97
2023-01-27T21:14:19.532Z,25.67
2023-01-27T21:16:50.540Z,25.70
2023-01-27T21:19:19.127Z,25.93
2023-01-27T21:21:47.593Z,25.97
2023-01-27T21:24:16.034Z,26.37
2023-01-27T21:26:47.445Z,24.97
2023-01-27T21:29:21.137Z,24.17
2023-01-27T21:31:49.516Z,25.77
2023-01-27T21:34:17.681Z,25.73
2023-01-27T21:36:50.487Z,25.90
2023-01-27T21:39:18.684Z,24.33
2023-01-27T21:42:02.741Z,24.80
2023-01-27T21:44:46.113Z,36.80
2023-01-27T21:47:17.015Z,29.10
2023-01-27T21:49:57.662Z,25.03
2023-01-27T21:52:32.879Z,24.20
2023-01-27T21:55:02.635Z,24.80
2023-01-27T21:57:31.128Z,23.43
2023-01-27T22:00:00.641Z,24.33
2023-01-27T22:02:29.728Z,23.37
2023-01-27T22:04:57.859Z,24.33
2023-01-27T22:07:27.512Z,22.80
2023-01-27T22:09:56.002Z,24.20
2023-01-27T22:12:24.287Z,23.53
2023-01-27T22:14:52.979Z,23.37
2023-01-27T22:17:22.438Z,23.00
2023-01-27T22:19:50.544Z,22.80
2023-01-27T22:22:18.993Z,23.57
2023-01-27T22:24:47.095Z,22.87
2023-01-27T22:27:15.975Z,22.70
2023-01-27T22:29:44.909Z,24.17
2023-01-27T22:32:12.918Z,24.53
2023-01-27T22:34:43.506Z,24.27
2023-01-27T22:37:11.980Z,23.57
2023-01-27T22:39:43.312Z,23.07
2023-01-27T22:42:11.966Z,23.93
2023-01-27T22:44:40.563Z,22.87
2023-01-27T22:47:08.727Z,22.23
2023-01-27T22:49:36.726Z,24.07
2023-01-27T22:52:10.261Z,22.70
2023-01-27T22:54:38.403Z,23.97
2023-01-27T22:57:06.492Z,22.33
2023-01-27T22:59:34.620Z,23.13
2023-01-27T23:02:04.010Z,22.83
2023-01-27T23:04:32.015Z,24.33
2023-01-27T23:07:01.482Z,24.40
2023-01-27T23:09:32.042Z,23.33
2023-01-27T23:12:00.185Z,23.47
2023-01-27T23:14:29.041Z,22.67
2023-01-27T23:16:58.577Z,24.00
2023-01-27T23:19:29.987Z,22.13
2023-01-27T23:21:58.958Z,22.43
2023-01-27T23:24:27.989Z,23.43
2023-01-27T23:26:57.363Z,23.63
2023-01-27T23:29:26.811Z,23.13
2023-01-27T23:31:57.652Z,21.83
2023-01-27T23:34:25.868Z,23.63
2023-01-27T23:36:56.082Z,24.33
2023-01-27T23:39:24.989Z,24.17
2023-01-27T23:41:53.956Z,25.10
2023-01-27T23:44:23.241Z,25.10
2023-01-27T23:46:51.409Z,23.23
2023-01-27T23:49:19.465Z,23.53
2023-01-27T23:51:49.215Z,25.00
2023-01-27T23:54:17.404Z,25.90
2023-01-27T23:56:45.999Z,25.17
2023-01-27T23:59:14.192Z,24.50
